createdAt,value
2023-03-27T00:00:46.321Z,1.10
2023-03-27T00:03:50.337Z,1.10
2023-03-27T00:06:55.216Z,0.80
2023-03-27T00:09:57.670Z,1.20
2023-03-27T00:12:59.833Z,1.50
2023-03-27T00:16:03.047Z,1.63
2023-03-27T00:19:06.310Z,1.73
2023-03-27T00:22:08.310Z,1.90
2023-03-27T00:25:11.757Z,1.80
2023-03-27T00:28:14.162Z,1.30
2023-03-27T00:31:17.589Z,1.40
2023-03-27T00:34:19.672Z,2.10
2023-03-27T00:37:22.386Z,1.87
2023-03-27T00:40:24.505Z,1.87
2023-03-27T00:43:28.429Z,1.73
2023-03-27T00:46:42.456Z,1.40
2023-03-27T00:49:45.115Z,1.50
2023-03-27T00:52:51.545Z,1.70
2023-03-27T00:55:56.767Z,1.73
2023-03-27T00:59:05.541Z,1.40
2023-03-27T01:02:08.993Z,1.47
2023-03-27T01:05:12.851Z,1.40
2023-03-27T01:08:16.664Z,1.23
2023-03-27T01:11:47.049Z,1.20
2023-03-27T01:14:57.844Z,0.97
2023-03-27T01:18:45.129Z,1.30
2023-03-27T01:22:09.720Z,1.00
2023-03-27T01:25:49.323Z,1.00
2023-03-27T01:29:03.358Z,1.07
2023-03-27T01:32:26.323Z,1.20
2023-03-27T01:35:37.392Z,1.23
2023-03-27T01:38:42.506Z,1.17
2023-03-27T01:42:06.556Z,1.20
2023-03-27T01:45:40.358Z,0.83
2023-03-27T01:48:48.636Z,1.10
2023-03-27T01:51:58.739Z,1.10
2023-03-27T01:55:05.345Z,0.93
2023-03-27T01:58:17.009Z,0.87
2023-03-27T02:01:24.165Z,0.87
2023-03-27T02:04:36.037Z,1.03
2023-03-27T02:07:45.159Z,1.27
2023-03-27T02:10:53.694Z,1.10
2023-03-27T02:14:00.621Z,1.33
2023-03-27T02:17:10.429Z,1.40
2023-03-27T02:20:16.503Z,1.30
2023-03-27T02:23:18.614Z,1.53
2023-03-27T02:26:20.740Z,1.63
2023-03-27T02:30:04.239Z,1.50
2023-03-27T02:33:38.136Z,1.23
2023-03-27T02:36:57.295Z,1.37
2023-03-27T02:40:39.755Z,1.43
2023-03-27T02:44:11.088Z,1.10
2023-03-27T02:47:52.909Z,1.10
2023-03-27T02:51:13.688Z,0.80
2023-03-27T02:54:19.584Z,0.70
2023-03-27T02:57:26.905Z,0.73
2023-03-27T03:00:50.994Z,0.70
2023-03-27T03:04:57.249Z,0.60
2023-03-27T03:08:05.898Z,0.40
2023-03-27T03:11:12.184Z,0.70
2023-03-27T03:14:15.286Z,0.60
2023-03-27T03:17:17.610Z,0.60
2023-03-27T03:20:21.700Z,0.50
2023-03-27T03:23:24.419Z,0.40
2023-03-27T03:26:27.358Z,0.60
2023-03-27T03:29:30.188Z,0.43
2023-03-27T03:32:44.671Z,0.67
2023-03-27T03:35:50.797Z,0.50
2023-03-27T03:39:04.113Z,0.43
2023-03-27T03:42:06.571Z,0.50
2023-03-27T03:45:09.294Z,0.40
2023-03-27T03:48:11.682Z,0.60
2023-03-27T03:51:13.670Z,0.40
2023-03-27T03:54:15.662Z,0.40
2023-03-27T03:57:19.588Z,0.40
2023-03-27T04:00:39.759Z,0.47
2023-03-27T04:03:49.111Z,0.30
2023-03-27T04:06:53.175Z,0.30
2023-03-27T04:09:55.464Z,0.40
2023-03-27T04:13:02.672Z,0.40
2023-03-27T04:16:08.265Z,0.30
2023-03-27T04:19:14.590Z,0.30
2023-03-27T04:22:17.813Z,0.30
2023-03-27T04:25:22.583Z,0.40
2023-03-27T04:28:24.696Z,0.37
2023-03-27T04:31:41.128Z,0.40
2023-03-27T04:35:12.740Z,0.40
2023-03-27T04:38:26.482Z,0.40
2023-03-27T04:41:31.065Z,0.30
2023-03-27T04:44:35.088Z,0.30
2023-03-27T04:47:38.296Z,0.20
2023-03-27T04:50:44.393Z,0.30
2023-03-27T04:53:49.495Z,0.30
2023-03-27T04:56:51.597Z,0.30
2023-03-27T04:59:53.729Z,0.33
2023-03-27T05:03:24.001Z,0.30
2023-03-27T05:06:33.178Z,0.30
2023-03-27T05:09:36.636Z,0.30
2023-03-27T05:12:47.413Z,0.30
2023-03-27T05:15:51.036Z,0.30
2023-03-27T05:18:56.230Z,0.37
2023-03-27T05:21:58.278Z,0.20
2023-03-27T05:25:01.779Z,0.20
2023-03-27T05:28:03.992Z,0.20
2023-03-27T05:31:10.990Z,0.20
2023-03-27T05:34:24.553Z,0.20
2023-03-27T05:37:29.331Z,0.10
2023-03-27T05:40:52.427Z,0.20
2023-03-27T05:43:54.679Z,0.20
2023-03-27T05:46:56.900Z,0.20
2023-03-27T05:50:03.199Z,0.10
2023-03-27T05:53:10.297Z,0.40
2023-03-27T05:56:17.480Z,0.10
2023-03-27T05:59:39.812Z,0.10
2023-03-27T06:02:57.391Z,0.10
2023-03-27T06:06:12.803Z,0.10
2023-03-27T06:09:18.039Z,0.10
2023-03-27T06:12:37.326Z,0.20
2023-03-27T06:15:54.432Z,0.10
2023-03-27T06:19:21.222Z,0.20
2023-03-27T06:22:27.046Z,0.20
2023-03-27T06:25:34.722Z,0.10
2023-03-27T06:28:39.382Z,0.03
2023-03-27T06:31:41.509Z,0.10
2023-03-27T06:34:50.308Z,0.30
2023-03-27T06:38:13.025Z,0.10
2023-03-27T06:41:15.184Z,0.20
2023-03-27T06:44:40.094Z,0.20
2023-03-27T06:48:13.825Z,0.20
2023-03-27T06:51:23.303Z,0.10
2023-03-27T06:54:27.212Z,0.20
2023-03-27T06:57:30.248Z,0.20
2023-03-27T07:00:37.503Z,0.20
2023-03-27T07:04:02.516Z,0.20
2023-03-27T07:07:28.341Z,0.20
2023-03-27T07:10:31.984Z,0.20
2023-03-27T07:13:36.216Z,0.20
2023-03-27T07:16:41.617Z,0.20
2023-03-27T07:19:44.236Z,0.20
2023-03-27T07:22:47.851Z,0.30
2023-03-27T07:26:22.230Z,0.27
2023-03-27T07:29:37.324Z,0.40
2023-03-27T07:32:41.936Z,0.60
2023-03-27T07:35:45.953Z,0.60
2023-03-27T07:39:14.328Z,0.70
2023-03-27T07:42:16.345Z,0.93
2023-03-27T07:45:39.339Z,1.17
2023-03-27T07:48:41.490Z,1.40
2023-03-27T07:51:50.245Z,1.57
2023-03-27T07:54:52.635Z,2.10
2023-03-27T07:58:02.223Z,2.00
2023-03-27T08:01:07.935Z,2.07
2023-03-27T08:04:11.256Z,2.10
2023-03-27T08:07:16.040Z,2.20
2023-03-27T08:10:18.641Z,2.00
2023-03-27T08:13:30.696Z,2.10
2023-03-27T08:16:38.035Z,1.80
2023-03-27T08:19:40.208Z,1.73
2023-03-27T08:22:42.339Z,1.80
2023-03-27T08:26:10.786Z,1.80
2023-03-27T08:29:26.436Z,1.80
2023-03-27T08:32:28.745Z,1.90
2023-03-27T08:35:31.814Z,2.10
2023-03-27T08:38:34.609Z,2.00
2023-03-27T08:41:52.659Z,1.83
2023-03-27T08:45:08.711Z,2.00
2023-03-27T08:48:22.201Z,1.90
2023-03-27T08:51:29.922Z,2.00
2023-03-27T08:54:34.541Z,1.60
2023-03-27T08:57:37.654Z,1.83
2023-03-27T09:01:16.981Z,1.70
2023-03-27T09:04:41.317Z,1.40
2023-03-27T09:07:55.666Z,1.30
2023-03-27T09:11:24.810Z,1.17
2023-03-27T09:14:41.324Z,0.90
2023-03-27T09:18:02.997Z,0.90
2023-03-27T09:21:40.140Z,0.50
2023-03-27T09:24:52.118Z,0.30
2023-03-27T09:28:38.785Z,0.40
2023-03-27T09:31:52.293Z,0.47
2023-03-27T09:34:55.550Z,0.37
2023-03-27T09:38:04.133Z,0.40
2023-03-27T09:41:16.492Z,0.40
2023-03-27T09:44:27.036Z,0.30
2023-03-27T09:47:46.886Z,0.57
2023-03-27T09:50:49.505Z,0.50
2023-03-27T09:54:17.962Z,0.50
2023-03-27T09:57:21.283Z,0.60
2023-03-27T10:00:33.769Z,0.53
2023-03-27T10:03:49.446Z,0.60
2023-03-27T10:07:15.723Z,0.60
2023-03-27T10:10:45.342Z,0.60
2023-03-27T10:14:16.474Z,0.60
2023-03-27T10:17:29.897Z,0.70
2023-03-27T10:20:50.875Z,0.80
2023-03-27T10:24:01.102Z,1.07
2023-03-27T10:27:31.493Z,0.97
2023-03-27T10:31:32.239Z,0.77
2023-03-27T10:34:58.984Z,0.80
2023-03-27T10:38:23.180Z,1.23
2023-03-27T10:41:48.294Z,2.00
2023-03-27T10:44:54.663Z,1.50
2023-03-27T10:48:01.969Z,1.80
2023-03-27T10:51:43.408Z,1.80
2023-03-27T10:55:25.527Z,2.03
2023-03-27T10:58:35.493Z,2.17
2023-03-27T11:01:46.928Z,2.37
2023-03-27T11:04:58.326Z,2.47
2023-03-27T11:08:21.896Z,2.43
2023-03-27T11:11:31.371Z,2.53
2023-03-27T11:14:55.763Z,2.20
2023-03-27T11:18:14.469Z,2.80
2023-03-27T11:21:55.200Z,2.70
2023-03-27T11:25:07.979Z,3.43
2023-03-27T11:28:10.120Z,3.10
2023-03-27T11:31:34.385Z,3.57
2023-03-27T11:34:48.436Z,3.57
2023-03-27T11:38:41.447Z,2.90
2023-03-27T11:41:51.307Z,2.90
2023-03-27T11:44:54.870Z,3.10
2023-03-27T11:48:36.078Z,2.83
2023-03-27T11:52:16.584Z,2.60
2023-03-27T11:55:31.252Z,2.83
2023-03-27T11:59:12.614Z,3.17
2023-03-27T12:02:50.787Z,3.30
2023-03-27T12:06:07.073Z,2.90
2023-03-27T12:09:25.604Z,3.03
2023-03-27T12:12:59.329Z,2.73
2023-03-27T12:16:43.243Z,3.00
2023-03-27T12:19:55.963Z,2.63
2023-03-27T12:23:15.953Z,3.27
2023-03-27T12:27:23.667Z,2.20
2023-03-27T12:30:47.675Z,2.30
2023-03-27T12:34:06.869Z,2.40
2023-03-27T12:37:13.702Z,1.80
2023-03-27T12:40:41.444Z,2.00
2023-03-27T12:43:49.045Z,2.10
2023-03-27T12:47:22.124Z,2.47
2023-03-27T12:50:30.397Z,2.10
2023-03-27T12:53:37.364Z,2.00
2023-03-27T12:56:52.455Z,2.07
2023-03-27T12:59:59.316Z,2.20
2023-03-27T13:03:48.810Z,2.00
2023-03-27T13:07:05.397Z,1.97
2023-03-27T13:10:28.631Z,2.30
2023-03-27T13:13:52.581Z,2.13
2023-03-27T13:17:13.509Z,1.67
2023-03-27T13:20:46.496Z,1.50
2023-03-27T13:24:17.022Z,1.40
2023-03-27T13:27:36.919Z,1.63
2023-03-27T13:30:47.439Z,1.50
2023-03-27T13:34:28.656Z,1.40
2023-03-27T13:37:38.188Z,1.37
2023-03-27T13:40:45.037Z,1.37
2023-03-27T13:43:55.886Z,1.30
2023-03-27T13:47:30.619Z,1.30
2023-03-27T13:51:06.704Z,1.33
2023-03-27T13:54:22.939Z,1.53
2023-03-27T13:57:47.139Z,1.00
2023-03-27T14:01:00.938Z,1.47
2023-03-27T14:04:18.874Z,1.10
2023-03-27T14:07:48.938Z,0.90
2023-03-27T14:11:09.150Z,1.00
2023-03-27T14:14:37.436Z,1.30
2023-03-27T14:18:04.791Z,1.30
2023-03-27T14:21:12.698Z,1.60
2023-03-27T14:24:35.934Z,1.47
2023-03-27T14:27:55.208Z,1.10
2023-03-27T14:31:06.293Z,1.20
2023-03-27T14:34:33.295Z,1.00
2023-03-27T14:38:05.892Z,1.10
2023-03-27T14:41:26.814Z,0.90
2023-03-27T14:44:33.492Z,1.20
2023-03-27T14:47:41.015Z,0.90
2023-03-27T14:50:46.560Z,0.90
2023-03-27T14:53:52.415Z,0.90
2023-03-27T14:57:18.114Z,1.03
2023-03-27T15:00:34.543Z,0.87
2023-03-27T15:03:39.161Z,0.87
2023-03-27T15:06:42.404Z,0.93
2023-03-27T15:09:46.773Z,0.97
2023-03-27T15:13:12.156Z,0.90
2023-03-27T15:16:27.266Z,0.90
2023-03-27T15:19:35.156Z,0.80
2023-03-27T15:22:44.726Z,1.03
2023-03-27T15:25:54.513Z,0.80
2023-03-27T15:29:20.474Z,0.70
2023-03-27T15:32:22.735Z,0.80
2023-03-27T15:35:48.500Z,1.00
2023-03-27T15:38:51.358Z,0.73
2023-03-27T15:42:02.883Z,0.90
2023-03-27T15:45:05.895Z,1.00
2023-03-27T15:48:20.988Z,0.73
2023-03-27T15:51:23.170Z,1.47
2023-03-27T15:54:34.502Z,1.23
2023-03-27T15:57:36.590Z,0.80
2023-03-27T16:00:47.592Z,0.80
2023-03-27T16:03:51.543Z,1.10
2023-03-27T16:07:06.502Z,0.80
2023-03-27T16:10:10.614Z,0.90
2023-03-27T16:13:27.585Z,0.70
2023-03-27T16:16:34.355Z,0.80
2023-03-27T16:19:56.817Z,0.93
2023-03-27T16:22:59.337Z,0.80
2023-03-27T16:26:04.139Z,0.70
2023-03-27T16:29:08.370Z,1.30
2023-03-27T16:32:14.028Z,0.83
2023-03-27T16:35:16.982Z,0.93
2023-03-27T16:38:19.250Z,1.03
2023-03-27T16:41:22.552Z,0.73
2023-03-27T16:44:24.868Z,1.00
2023-03-27T16:47:26.981Z,0.90
2023-03-27T16:50:31.328Z,1.17
2023-03-27T16:53:33.869Z,0.97
2023-03-27T16:56:36.678Z,0.97
2023-03-27T16:59:38.926Z,0.80
2023-03-27T17:02:44.764Z,1.00
2023-03-27T17:05:47.494Z,0.80
2023-03-27T17:08:55.612Z,0.87
2023-03-27T17:11:58.409Z,1.00
2023-03-27T17:15:00.930Z,1.07
2023-03-27T17:18:08.054Z,0.80
2023-03-27T17:21:10.140Z,1.00
2023-03-27T17:24:14.901Z,1.20
2023-03-27T17:27:18.844Z,0.90
2023-03-27T17:30:34.664Z,0.80
2023-03-27T17:33:41.144Z,1.20
2023-03-27T17:36:49.762Z,1.10
2023-03-27T17:39:56.635Z,1.13
2023-03-27T17:42:59.061Z,0.77
2023-03-27T17:46:08.602Z,1.00
2023-03-27T17:49:12.843Z,1.00
2023-03-27T17:52:16.457Z,1.03
2023-03-27T17:55:19.249Z,0.80
2023-03-27T17:58:27.301Z,0.63
2023-03-27T18:01:30.845Z,1.00
2023-03-27T18:04:33.815Z,0.90
2023-03-27T18:07:37.821Z,0.60
2023-03-27T18:10:49.742Z,0.87
2023-03-27T18:13:53.604Z,0.70
2023-03-27T18:16:57.773Z,1.03
2023-03-27T18:20:00.479Z,0.70
2023-03-27T18:23:03.664Z,1.07
2023-03-27T18:26:07.678Z,0.90
2023-03-27T18:29:11.232Z,1.30
2023-03-27T18:32:14.478Z,0.90
2023-03-27T18:35:20.494Z,0.90
2023-03-27T18:38:27.910Z,1.00
2023-03-27T18:41:41.225Z,0.90
2023-03-27T18:44:44.122Z,1.03
2023-03-27T18:47:47.016Z,1.20
2023-03-27T18:51:01.841Z,1.00
2023-03-27T18:54:05.407Z,1.00
2023-03-27T18:57:08.989Z,1.00
2023-03-27T19:00:18.860Z,0.80
2023-03-27T19:03:25.549Z,1.23
2023-03-27T19:06:29.046Z,0.83
2023-03-27T19:09:40.860Z,1.40
2023-03-27T19:12:44.785Z,1.20
2023-03-27T19:16:14.903Z,1.03
2023-03-27T19:19:48.733Z,1.30
2023-03-27T19:23:10.681Z,1.13
2023-03-27T19:26:19.976Z,0.90
2023-03-27T19:29:24.626Z,1.17
2023-03-27T19:32:28.005Z,1.10
2023-03-27T19:35:31.974Z,1.00
2023-03-27T19:38:35.318Z,1.17
2023-03-27T19:41:38.114Z,1.00
2023-03-27T19:44:42.304Z,1.03
2023-03-27T19:47:46.658Z,1.00
2023-03-27T19:50:57.119Z,1.50
2023-03-27T19:54:00.315Z,1.20
2023-03-27T19:57:03.636Z,0.93
2023-03-27T20:00:13.262Z,0.90
2023-03-27T20:03:20.416Z,1.00
2023-03-27T20:06:26.609Z,0.80
2023-03-27T20:09:30.132Z,1.60
2023-03-27T20:12:33.366Z,0.90
2023-03-27T20:15:38.820Z,1.00
2023-03-27T20:18:43.439Z,1.00
2023-03-27T20:21:46.642Z,0.80
2023-03-27T20:24:53.897Z,1.03
2023-03-27T20:27:57.129Z,1.10
2023-03-27T20:31:05.819Z,0.93
2023-03-27T20:34:09.451Z,1.10
2023-03-27T20:37:14.691Z,1.00
2023-03-27T20:40:18.677Z,0.90
2023-03-27T20:43:23.148Z,1.40
2023-03-27T20:46:30.568Z,1.00
2023-03-27T20:49:40.737Z,0.80
2023-03-27T20:52:46.866Z,0.63
2023-03-27T20:55:59.272Z,0.90
2023-03-27T20:59:02.134Z,1.10
2023-03-27T21:02:04.361Z,1.07
2023-03-27T21:05:06.591Z,0.93
2023-03-27T21:08:08.970Z,1.10
2023-03-27T21:11:11.726Z,1.27
2023-03-27T21:14:13.880Z,1.10
2023-03-27T21:17:16.268Z,2.03
2023-03-27T21:20:18.505Z,1.40
2023-03-27T21:23:21.045Z,1.30
2023-03-27T21:26:23.127Z,1.37
2023-03-27T21:29:26.288Z,1.27
2023-03-27T21:32:28.299Z,1.37
2023-03-27T21:35:30.398Z,1.10
2023-03-27T21:38:32.494Z,1.00
2023-03-27T21:41:34.787Z,1.23
2023-03-27T21:44:36.952Z,1.00
2023-03-27T21:47:47.214Z,1.27
2023-03-27T21:50:49.941Z,1.30
2023-03-27T21:53:53.388Z,0.90
2023-03-27T21:56:55.461Z,1.00
2023-03-27T21:59:58.083Z,1.30
2023-03-27T22:03:00.272Z,1.03
2023-03-27T22:06:12.578Z,0.90
2023-03-27T22:09:17.150Z,0.80
2023-03-27T22:12:19.867Z,0.70
2023-03-27T22:15:21.952Z,0.70
2023-03-27T22:18:24.953Z,1.00
2023-03-27T22:21:29.072Z,0.90
2023-03-27T22:24:31.138Z,0.80
2023-03-27T22:27:33.463Z,0.70
2023-03-27T22:30:36.034Z,0.67
2023-03-27T22:33:38.535Z,0.90
2023-03-27T22:36:40.983Z,0.70
2023-03-27T22:39:43.292Z,0.90
2023-03-27T22:42:45.344Z,0.70
2023-03-27T22:45:47.346Z,0.60
2023-03-27T22:48:59.051Z,0.47
2023-03-27T22:52:01.372Z,0.70
2023-03-27T22:55:03.463Z,0.80
2023-03-27T22:58:05.568Z,0.80
2023-03-27T23:01:07.777Z,0.80
2023-03-27T23:04:09.840Z,1.00
2023-03-27T23:07:12.265Z,1.00
2023-03-27T23:10:14.295Z,0.90
2023-03-27T23:13:16.250Z,1.00
2023-03-27T23:16:18.362Z,0.93
2023-03-27T23:19:20.469Z,1.00
2023-03-27T23:22:22.519Z,1.10
2023-03-27T23:25:24.677Z,0.90
2023-03-27T23:28:30.585Z,1.37
2023-03-27T23:31:32.712Z,1.13
2023-03-27T23:34:34.806Z,1.37
2023-03-27T23:37:36.933Z,1.20
2023-03-27T23:40:39.055Z,1.10
2023-03-27T23:43:41.500Z,1.43
2023-03-27T23:46:43.508Z,1.00
2023-03-27T23:49:45.879Z,1.43
2023-03-27T23:52:47.901Z,1.00
2023-03-27T23:55:49.884Z,1.10
2023-03-27T23:58:51.908Z,1.00
